Time;durP1;ratioP1;P1;durP2;ratioP2;P2;SDS_P1;SDS_P2;PMS_P1;PMS_P2;Temp;Humidity;BMP_temperature;BMP_pressure;BME280_temperature;BME280_humidity;BME280_pressure;Samples;Min_cycle;Max_cycle;Signal;HPM_P1;HPM_P2
2022/02/20 00:02:02;;;;;;;14.27;5.65;;;;;;;-5.70;64.34;99442.59;4928823;28;20141;-86
2022/02/20 00:04:29;;;;;;;15.70;5.97;;;;;;;-5.79;64.00;99437.53;4959657;28;20042;-85
2022/02/20 00:06:56;;;;;;;16.00;7.05;;;;;;;-5.82;64.68;99437.56;4977307;28;20100;-85
2022/02/20 00:09:22;;;;;;;14.73;7.00;;;;;;;-5.76;64.53;99427.03;4977645;28;20034;-84
2022/02/20 00:11:48;;;;;;;11.48;6.32;;;;;;;-5.78;65.16;99417.56;4977690;28;20046;-84
2022/02/20 00:14:14;;;;;;;15.35;6.57;;;;;;;-5.69;65.02;99418.28;4977470;28;20136;-86
2022/02/20 00:16:40;;;;;;;11.63;5.32;;;;;;;-5.86;65.42;99412.44;4977108;28;20197;-85
2022/02/20 00:19:06;;;;;;;16.15;6.60;;;;;;;-5.77;64.81;99417.53;4976669;28;20514;-85
2022/02/20 00:21:32;;;;;;;15.07;6.35;;;;;;;-5.77;65.09;99414.91;4977667;28;20062;-85
2022/02/20 00:23:58;;;;;;;14.98;5.28;;;;;;;-5.86;65.26;99407.25;4944323;28;20096;-84
2022/02/20 00:26:24;;;;;;;13.45;5.38;;;;;;;-5.78;65.41;99413.19;4976773;28;20098;-86
2022/02/20 00:28:50;;;;;;;11.73;6.20;;;;;;;-5.77;65.18;99409.72;4959548;28;20058;-84
2022/02/20 00:31:18;;;;;;;16.80;6.68;;;;;;;-5.92;65.47;99396.94;4976573;28;20066;-85
2022/02/20 00:33:45;;;;;;;11.43;5.53;;;;;;;-5.99;65.92;99400.47;4943482;28;20038;-84
2022/02/20 00:36:11;;;;;;;15.90;6.63;;;;;;;-5.97;66.02;99385.72;4959794;28;20045;-84
2022/02/20 00:38:37;;;;;;;10.85;5.03;;;;;;;-5.96;66.20;99387.44;4927701;28;20502;-85
2022/02/20 00:41:03;;;;;;;12.40;6.13;;;;;;;-5.88;65.92;99388.16;4959015;28;20065;-86
2022/02/20 00:43:29;;;;;;;8.32;4.15;;;;;;;-6.01;66.56;99374.50;4977230;28;20066;-85
2022/02/20 00:45:55;;;;;;;14.48;6.35;;;;;;;-5.94;66.11;99389.16;4943527;28;20042;-84
2022/02/20 00:48:21;;;;;;;12.75;6.22;;;;;;;-5.86;66.32;99373.41;4936956;28;20066;-83
2022/02/20 00:50:48;;;;;;;11.48;5.97;;;;;;;-5.87;66.29;99366.44;4947080;28;20046;-84
2022/02/20 00:53:14;;;;;;;18.98;6.47;;;;;;;-5.91;66.75;99343.94;4942627;28;20106;-84
2022/02/20 00:55:40;;;;;;;15.45;5.50;;;;;;;-5.90;66.61;99351.75;4948724;28;20484;-87
2022/02/20 00:58:08;;;;;;;13.43;6.03;;;;;;;-5.92;67.13;99366.50;4976198;28;20039;-85
2022/02/20 01:00:34;;;;;;;13.18;6.70;;;;;;;-5.95;67.08;99356.16;4943571;28;20055;-85
2022/02/20 01:03:00;;;;;;;14.82;6.82;;;;;;;-5.95;67.35;99357.91;4976368;28;20509;-85
2022/02/20 01:05:28;;;;;;;16.52;6.80;;;;;;;-5.93;67.13;99356.16;4976147;28;20057;-86
2022/02/20 01:07:54;;;;;;;16.70;6.68;;;;;;;-5.90;67.48;99371.72;4959152;28;20047;-87
2022/02/20 01:10:20;;;;;;;13.25;6.00;;;;;;;-5.93;67.56;99371.78;4975462;28;20137;-88
2022/02/20 01:12:46;;;;;;;16.80;6.25;;;;;;;-5.87;67.54;99387.28;4958940;28;20038;-86
2022/02/20 01:15:13;;;;;;;12.45;6.07;;;;;;;-5.86;67.53;99389.00;4926709;28;20502;-85
2022/02/20 01:17:38;;;;;;;15.30;7.38;;;;;;;-5.78;67.40;99381.09;4944352;28;20513;-85
2022/02/20 01:20:05;;;;;;;14.00;5.97;;;;;;;-5.73;67.26;99380.16;4960776;28;20073;-84
2022/02/20 01:22:31;;;;;;;15.88;6.82;;;;;;;-5.73;67.78;99380.16;4944764;28;20042;-82
2022/02/20 01:24:57;;;;;;;15.10;7.10;;;;;;;-5.79;67.45;99359.41;4975233;28;20046;-84
2022/02/20 01:27:24;;;;;;;14.23;5.68;;;;;;;-5.74;67.55;99349.78;4975829;28;20077;-85
2022/02/20 01:29:50;;;;;;;14.95;6.63;;;;;;;-5.61;67.44;99369.53;4975259;28;20046;-85
2022/02/20 01:32:17;;;;;;;13.73;6.00;;;;;;;-5.48;66.65;99348.56;4957872;28;20038;-88
2022/02/20 01:34:43;;;;;;;15.18;5.95;;;;;;;-5.51;66.92;99343.38;4958198;28;20062;-84
2022/02/20 01:37:09;;;;;;;17.05;6.85;;;;;;;-5.53;66.75;99352.94;4942357;28;20054;-87
2022/02/20 01:39:35;;;;;;;17.77;6.80;;;;;;;-5.52;66.98;99344.28;4958642;28;20051;-88
2022/02/20 01:42:07;;;;;;;15.48;6.63;;;;;;;-5.42;66.73;99338.03;4942716;28;20066;-88
2022/02/20 01:44:34;;;;;;;11.68;6.03;;;;;;;-5.43;66.93;99325.91;4942221;28;20074;-85
2022/02/20 01:47:08;;;;;;;16.02;6.88;;;;;;;-5.49;66.87;99315.56;4941469;28;20038;-86
2022/02/20 01:49:38;;;;;;;13.45;5.95;;;;;;;-5.38;66.94;99318.84;4911189;28;20050;-88
2022/02/20 01:52:04;;;;;;;12.75;5.70;;;;;;;-5.38;67.00;99326.66;4974767;28;20104;-86
2022/02/20 01:54:30;;;;;;;15.98;6.57;;;;;;;-5.30;66.58;99306.59;4958029;28;20050;-86
2022/02/20 01:56:57;;;;;;;12.60;4.95;;;;;;;-5.26;66.84;99303.03;4957855;28;20038;-86
2022/02/20 01:59:30;;;;;;;13.15;6.97;;;;;;;-5.29;66.88;99297.03;4958159;28;20046;-87
2022/02/20 02:02:19;;;;;;;17.88;5.32;;;;;;;-5.34;66.74;99294.50;4958731;28;20078;-84
2022/02/20 02:05:06;;;;;;;14.60;6.28;;;;;;;-5.46;67.16;99286.88;4957352;28;20058;-87
2022/02/20 02:07:38;;;;;;;15.10;6.80;;;;;;;-5.44;67.38;99291.19;4958333;28;20058;-89
2022/02/20 02:10:23;;;;;;;11.95;5.53;;;;;;;-5.39;67.17;99280.66;4949024;28;20046;-86
2022/02/20 02:13:09;;;;;;;16.85;7.07;;;;;;;-5.36;67.21;99270.22;4964756;28;20090;-87
2022/02/20 02:16:12;;;;;;;11.68;5.57;;;;;;;-5.25;66.80;99268.28;4937445;29;20570;-81
2022/02/20 02:18:52;;;;;;;17.38;7.18;;;;;;;-5.32;66.95;99265.81;4957139;28;20058;-85
2022/02/20 02:21:37;;;;;;;13.60;6.97;;;;;;;-5.31;67.25;99268.38;4943594;28;20050;-85
2022/02/20 02:24:32;;;;;;;15.95;6.10;;;;;;;-5.43;68.09;99251.22;4945310;28;20506;-87
2022/02/20 02:27:03;;;;;;;13.00;7.03;;;;;;;-5.36;68.25;99265.00;4943150;28;20043;-84
2022/02/20 02:29:48;;;;;;;17.35;8.07;;;;;;;-5.32;68.25;99271.88;4946685;28;20065;-83
2022/02/20 02:32:14;;;;;;;17.85;8.00;;;;;;;-5.38;68.58;99262.44;4957106;28;20061;-88
2022/02/20 02:34:44;;;;;;;13.23;5.95;;;;;;;-5.38;68.84;99278.06;4940988;28;20046;-89
2022/02/20 02:37:11;;;;;;;15.82;7.05;;;;;;;-5.43;69.12;99290.28;4957665;28;20039;-86
2022/02/20 02:39:38;;;;;;;12.88;5.20;;;;;;;-5.35;68.48;99277.13;4941028;28;20133;-82
2022/02/20 02:42:04;;;;;;;14.63;7.30;;;;;;;-5.31;68.52;99293.56;4956746;28;20077;-86
2022/02/20 02:44:31;;;;;;;21.30;7.22;;;;;;;-5.37;68.52;99278.91;4941031;28;20051;-88
2022/02/20 02:46:57;;;;;;;15.55;7.40;;;;;;;-5.33;68.20;99275.38;4909662;28;20506;-86
2022/02/20 02:49:23;;;;;;;15.77;7.57;;;;;;;-5.36;68.20;99265.00;4974266;28;20059;-83
2022/02/20 02:51:50;;;;;;;17.30;7.90;;;;;;;-5.25;68.30;99263.06;4925167;28;20141;-83
2022/02/20 02:54:18;;;;;;;16.55;7.68;;;;;;;-5.19;68.23;99242.13;4957412;28;20078;-80
2022/02/20 02:56:44;;;;;;;13.18;6.30;;;;;;;-5.37;68.53;99230.28;4940714;28;20042;-82
2022/02/20 02:59:11;;;;;;;21.45;7.88;;;;;;;-5.31;68.42;99237.09;4925280;28;20522;-85
2022/02/20 03:01:38;;;;;;;17.10;7.75;;;;;;;-5.28;68.24;99224.03;4941080;28;20065;-85
2022/02/20 03:04:05;;;;;;;15.25;8.13;;;;;;;-5.23;68.40;99224.84;4957106;28;20054;-85
2022/02/20 03:06:32;;;;;;;15.52;6.43;;;;;;;-5.18;68.64;99212.56;4956918;28;20050;-88
2022/02/20 03:09:06;;;;;;;18.33;7.40;;;;;;;-5.28;68.97;99190.16;4941858;28;20049;-85
2022/02/20 03:11:33;;;;;;;16.42;7.70;;;;;;;-5.21;68.60;99207.41;4906663;29;20046;-83
2022/02/20 03:14:00;;;;;;;22.48;8.52;;;;;;;-5.23;68.70;99204.00;4922048;29;20130;-82
2022/02/20 03:16:27;;;;;;;11.25;5.55;;;;;;;-5.19;69.08;99218.69;4922165;29;20098;-86
2022/02/20 03:18:53;;;;;;;16.30;7.30;;;;;;;-4.96;71.41;99204.34;4971658;28;20470;-88
2022/02/20 03:21:23;;;;;;;14.18;7.60;;;;;;;-4.95;69.65;99209.53;4941664;28;20053;-87
2022/02/20 03:23:51;;;;;;;12.70;7.43;;;;;;;-4.97;69.19;99228.66;4940713;28;20039;-86
2022/02/20 03:26:17;;;;;;;14.57;7.80;;;;;;;-5.00;69.12;99241.75;4924856;28;20055;-84
2022/02/20 03:28:44;;;;;;;18.48;8.32;;;;;;;-5.02;69.14;99233.13;4941013;28;20050;-83
2022/02/20 03:31:12;;;;;;;13.13;6.97;;;;;;;-5.07;69.29;99214.13;4940876;28;20406;-83
2022/02/20 03:33:38;;;;;;;12.52;7.35;;;;;;;-4.97;69.14;99220.84;4940404;28;20060;-81
2022/02/20 03:36:06;;;;;;;17.40;8.30;;;;;;;-4.89;69.34;99217.22;4956421;28;20050;-86
2022/02/20 03:38:33;;;;;;;16.08;6.57;;;;;;;-4.90;69.05;99219.84;4924846;28;20081;-84
2022/02/20 03:41:00;;;;;;;12.10;6.20;;;;;;;-4.89;68.92;99212.00;4940554;28;20058;-85
2022/02/20 03:43:34;;;;;;;16.38;7.85;;;;;;;-4.92;68.74;99204.25;4941358;28;20055;-82
2022/02/20 03:46:03;;;;;;;16.53;7.70;;;;;;;-4.85;68.89;99215.44;4941714;28;20502;-83
2022/02/20 03:48:32;;;;;;;16.15;7.68;;;;;;;-4.77;68.85;99216.13;4914208;28;20611;-84
2022/02/20 03:51:17;;;;;;;15.10;8.07;;;;;;;-4.83;68.77;99213.63;4931765;28;20051;-84
2022/02/20 03:53:44;;;;;;;15.60;6.32;;;;;;;-4.94;69.03;99205.16;4944195;28;20387;-85
2022/02/20 03:56:10;;;;;;;11.38;6.68;;;;;;;-5.01;69.48;99193.97;4944227;28;20485;-88
2022/02/20 03:58:42;;;;;;;22.60;6.22;;;;;;;-5.08;69.65;99207.16;4945547;28;20046;-85
2022/02/20 04:01:08;;;;;;;21.77;7.40;;;;;;;-5.05;70.08;99205.38;4961247;28;20051;-84
2022/02/20 04:03:42;;;;;;;18.73;8.73;;;;;;;-5.03;70.09;99210.56;4959902;28;20125;-84
2022/02/20 04:06:08;;;;;;;16.42;8.18;;;;;;;-5.04;70.06;99203.59;4944041;28;20137;-84
2022/02/20 04:08:40;;;;;;;17.85;6.32;;;;;;;-5.04;69.95;99191.47;4959750;28;20087;-83
2022/02/20 04:11:08;;;;;;;12.68;6.78;;;;;;;-4.98;69.89;99198.28;4943485;28;20053;-87
2022/02/20 04:13:55;;;;;;;17.55;8.23;;;;;;;-4.90;70.04;99201.59;4948783;28;20059;-88
2022/02/20 04:16:30;;;;;;;22.60;8.07;;;;;;;-4.84;69.74;99190.22;4945291;28;20043;-84
2022/02/20 04:18:57;;;;;;;19.00;8.20;;;;;;;-4.66;69.53;99208.94;4927740;28;20046;-88
2022/02/20 04:21:26;;;;;;;31.95;8.43;;;;;;;-4.58;69.47;99210.53;4929294;28;20186;-87
2022/02/20 04:24:00;;;;;;;23.13;8.50;;;;;;;-4.49;69.07;99197.28;4945199;28;20052;-84
2022/02/20 04:26:26;;;;;;;21.05;8.95;;;;;;;-4.43;69.02;99199.78;4943588;28;20074;-81
2022/02/20 04:28:52;;;;;;;20.55;8.63;;;;;;;-4.40;68.81;99181.41;4976682;28;20467;-81
2022/02/20 04:31:18;;;;;;;23.45;9.55;;;;;;;-4.31;68.53;99196.03;4945248;28;20053;-87
2022/02/20 04:33:49;;;;;;;20.30;9.80;;;;;;;-4.22;69.01;99175.78;4941436;28;20055;-81
2022/02/20 04:36:16;;;;;;;26.35;11.32;;;;;;;-4.11;68.41;99192.97;4968138;28;20054;-86
2022/02/20 04:38:47;;;;;;;19.15;9.13;;;;;;;-4.08;68.62;99183.31;4962843;28;20102;-85
2022/02/20 04:41:15;;;;;;;30.75;11.90;;;;;;;-4.13;68.61;99173.88;4945288;28;20058;-86
2022/02/20 04:43:41;;;;;;;16.10;8.75;;;;;;;-4.27;69.06;99171.56;4913740;28;20455;-85
2022/02/20 04:46:09;;;;;;;21.58;9.75;;;;;;;-4.33;69.21;99156.91;4944275;28;20079;-87
2022/02/20 04:48:35;;;;;;;30.77;11.38;;;;;;;-4.25;69.28;99180.22;4928240;28;20517;-86
2022/02/20 04:51:05;;;;;;;32.30;8.95;;;;;;;-4.17;69.34;99173.94;4931509;28;20061;-85
2022/02/20 04:53:32;;;;;;;20.73;10.27;;;;;;;-4.03;68.73;99171.00;4931913;28;20062;-86
2022/02/20 04:55:59;;;;;;;21.20;10.57;;;;;;;-3.97;68.67;99170.84;4929751;28;20069;-85
2022/02/20 04:58:33;;;;;;;14.25;8.25;;;;;;;-3.88;68.62;99169.75;4945618;28;20049;-85
2022/02/20 05:01:01;;;;;;;23.40;9.68;;;;;;;-3.76;68.16;99163.38;4942852;28;20046;-87
2022/02/20 05:03:36;;;;;;;20.40;9.85;;;;;;;-3.76;67.85;99174.72;4946376;28;20078;-85
2022/02/20 05:06:15;;;;;;;24.30;10.35;;;;;;;-3.73;68.01;99172.00;4944881;28;20050;-90
2022/02/20 05:08:45;;;;;;;21.45;8.55;;;;;;;-3.89;68.38;99168.06;4959634;28;20054;-87
2022/02/20 05:11:19;;;;;;;23.85;10.82;;;;;;;-3.86;68.24;99167.13;4959504;28;20069;-84
2022/02/20 05:13:54;;;;;;;21.00;9.15;;;;;;;-3.87;68.46;99171.50;4943965;28;20055;-87
2022/02/20 05:16:21;;;;;;;21.15;10.10;;;;;;;-3.94;68.33;99165.56;4928282;28;20137;-86
2022/02/20 05:18:47;;;;;;;19.73;9.20;;;;;;;-3.78;68.52;99167.81;4943114;28;20049;-85
2022/02/20 05:21:14;;;;;;;21.48;10.00;;;;;;;-3.70;68.15;99164.09;4959361;28;20050;-84
2022/02/20 05:23:41;;;;;;;12.48;6.45;;;;;;;-3.73;67.86;99158.09;4953650;28;20055;-85
2022/02/20 05:26:07;;;;;;;19.17;9.82;;;;;;;-3.80;68.12;99161.75;4925262;28;20054;-85
2022/02/20 05:28:33;;;;;;;21.25;11.15;;;;;;;-3.70;68.71;99164.09;4941260;28;20043;-86
2022/02/20 05:31:04;;;;;;;23.15;11.07;;;;;;;-3.52;68.22;99173.22;4957580;28;20116;-85
2022/02/20 05:33:31;;;;;;;23.65;10.50;;;;;;;-3.33;68.08;99142.22;4942466;28;20054;-84
2022/02/20 05:35:58;;;;;;;29.00;12.52;;;;;;;-3.25;67.59;99135.03;4940784;28;20038;-85
2022/02/20 05:38:35;;;;;;;19.73;10.32;;;;;;;-3.15;67.58;99142.63;4916334;28;20039;-85
2022/02/20 05:41:01;;;;;;;23.65;10.07;;;;;;;-3.00;67.33;99139.59;4942796;28;20050;-83
2022/02/20 05:43:29;;;;;;;22.83;10.82;;;;;;;-2.97;67.01;99140.38;4958684;28;20065;-82
2022/02/20 05:45:56;;;;;;;21.38;9.95;;;;;;;-2.92;67.08;99132.38;4942531;28;20042;-86
2022/02/20 05:48:28;;;;;;;27.00;11.75;;;;;;;-2.86;66.82;99121.72;4943103;28;20117;-87
2022/02/20 05:51:15;;;;;;;21.98;8.98;;;;;;;-2.99;66.98;99120.38;4957328;28;20051;-83
2022/02/20 05:53:51;;;;;;;24.30;10.95;;;;;;;-2.91;67.10;99107.94;4958672;28;20057;-87
2022/02/20 05:56:20;;;;;;;25.70;11.15;;;;;;;-3.06;66.99;99095.31;4943069;28;20513;-85
2022/02/20 05:58:54;;;;;;;20.13;9.90;;;;;;;-2.83;67.26;99110.31;4928559;28;20054;-84
2022/02/20 06:01:21;;;;;;;21.48;9.57;;;;;;;-2.80;66.83;99111.09;4941965;28;20042;-85
2022/02/20 06:03:52;;;;;;;19.00;9.60;;;;;;;-2.78;66.91;99109.31;4942372;28;20062;-86
2022/02/20 06:06:40;;;;;;;13.93;8.27;;;;;;;-2.66;67.36;99091.53;4929474;28;20046;-86
2022/02/20 06:09:21;;;;;;;28.10;11.73;;;;;;;-2.50;67.04;99087.53;4927483;28;20502;-84
2022/02/20 06:11:54;;;;;;;27.52;11.77;;;;;;;-2.41;66.79;99091.59;4957942;28;20083;-85
2022/02/20 06:14:43;;;;;;;20.42;10.73;;;;;;;-2.17;66.18;99092.59;4948210;28;20599;-84
2022/02/20 06:17:30;;;;;;;19.05;9.80;;;;;;;-2.06;66.47;99093.09;4947277;28;20121;-86
2022/02/20 06:20:34;;;;;;;18.67;10.82;;;;;;;-1.79;65.68;99097.41;4965913;28;20145;-85
2022/02/20 06:23:11;;;;;;;20.38;9.65;;;;;;;-1.55;64.78;99069.50;4958259;28;20047;-84
2022/02/20 06:26:10;;;;;;;25.30;8.30;;;;;;;-1.53;64.18;99070.31;4952353;28;20076;-87
2022/02/20 06:28:37;;;;;;;20.77;9.05;;;;;;;-1.38;63.62;99087.25;4925822;28;20047;-86
2022/02/20 06:31:04;;;;;;;22.58;10.43;;;;;;;-1.16;63.80;99076.00;4974644;28;20039;-86
2022/02/20 06:33:33;;;;;;;21.02;9.82;;;;;;;-0.97;62.84;99079.66;4941815;28;20046;-85
2022/02/20 06:36:04;;;;;;;17.55;10.05;;;;;;;-0.95;62.39;99071.72;4926203;28;20051;-86
2022/02/20 06:38:30;;;;;;;19.13;10.13;;;;;;;-1.08;62.89;99063.47;4925702;28;20053;-86
2022/02/20 06:40:56;;;;;;;26.13;10.23;;;;;;;-0.84;62.55;99062.53;4909645;28;20145;-86
2022/02/20 06:43:33;;;;;;;22.30;10.20;;;;;;;-0.59;62.12;99045.84;4941344;28;20062;-85
2022/02/20 06:46:17;;;;;;;20.75;10.20;;;;;;;-0.37;61.87;99041.44;4944171;28;20054;-85
2022/02/20 06:48:55;;;;;;;19.88;8.43;;;;;;;-0.32;61.11;99028.97;4960287;28;20058;-85
2022/02/20 06:51:44;;;;;;;16.02;7.95;;;;;;;-0.75;61.31;99035.09;4941465;28;20057;-86
2022/02/20 06:54:31;;;;;;;18.75;9.68;;;;;;;-0.73;61.54;99020.13;4940946;28;20047;-85
2022/02/20 06:57:17;;;;;;;18.55;8.85;;;;;;;-0.53;61.26;99020.19;4967454;28;20050;-85
2022/02/20 06:59:44;;;;;;;16.35;9.70;;;;;;;-0.60;60.90;99018.72;4926582;28;20053;-87
2022/02/20 07:02:10;;;;;;;21.27;10.13;;;;;;;-0.80;61.30;99032.63;4958663;28;20047;-84
2022/02/20 07:04:36;;;;;;;20.05;9.75;;;;;;;-0.59;61.01;99019.59;4958039;28;20049;-86
2022/02/20 07:07:03;;;;;;;20.63;9.60;;;;;;;-0.52;60.64;99032.41;4960637;28;20054;-85
2022/02/20 07:09:29;;;;;;;17.13;9.27;;;;;;;-0.28;60.51;99029.69;4945239;28;20078;-82
2022/02/20 07:11:55;;;;;;;13.93;6.93;;;;;;;-0.07;59.46;99031.44;4980217;28;20054;-86
2022/02/20 07:14:21;;;;;;;18.55;9.18;;;;;;;-0.17;59.15;99039.75;4930042;28;20054;-84
2022/02/20 07:16:48;;;;;;;19.17;10.43;;;;;;;-0.33;59.83;99036.91;4961291;28;20081;-84
2022/02/20 07:19:15;;;;;;;17.35;9.20;;;;;;;-0.38;59.76;99021.31;4960810;28;20038;-86
2022/02/20 07:21:41;;;;;;;18.33;9.45;;;;;;;-0.30;59.61;99031.50;4922274;29;20059;-85
2022/02/20 07:24:07;;;;;;;23.42;10.82;;;;;;;-0.50;59.69;99034.94;4925764;29;20095;-87
2022/02/20 07:26:34;;;;;;;23.30;10.57;;;;;;;-0.46;60.19;99026.03;4914112;29;20126;-84
2022/02/20 07:29:00;;;;;;;24.73;10.75;;;;;;;-0.49;60.66;99018.28;4931537;29;20107;-84
2022/02/20 07:31:28;;;;;;;20.42;10.77;;;;;;;-0.61;61.04;99017.00;4928902;29;20071;-85
2022/02/20 07:33:55;;;;;;;22.13;11.27;;;;;;;-0.88;61.14;99013.69;4944237;29;20059;-87
2022/02/20 07:36:22;;;;;;;22.20;10.02;;;;;;;-0.93;61.40;99023.53;4913301;29;20056;-86
2022/02/20 07:38:48;;;;;;;22.85;10.70;;;;;;;-0.95;61.77;99033.22;4927500;29;20044;-85
2022/02/20 07:41:14;;;;;;;23.10;10.30;;;;;;;-0.80;61.69;99021.28;4912681;29;20064;-85
2022/02/20 07:43:44;;;;;;;21.60;11.35;;;;;;;-0.74;61.33;99013.16;4912766;29;20506;-85
2022/02/20 07:46:10;;;;;;;24.65;10.57;;;;;;;-0.48;61.79;99012.13;4923986;29;20051;-85
2022/02/20 07:48:36;;;;;;;19.13;10.38;;;;;;;-0.56;60.69;98983.56;4906389;29;20448;-88
2022/02/20 07:51:02;;;;;;;22.80;10.95;;;;;;;-0.39;60.21;99009.13;4937563;29;20056;-84
2022/02/20 07:53:29;;;;;;;24.77;11.02;;;;;;;-0.46;60.89;99007.66;4972086;28;20061;-85
2022/02/20 07:55:56;;;;;;;22.73;12.05;;;;;;;-0.39;60.98;99027.50;4962623;28;20053;-85
2022/02/20 07:58:22;;;;;;;24.98;12.48;;;;;;;-0.43;61.45;99004.91;4929616;28;20130;-85
2022/02/20 08:00:48;;;;;;;24.98;12.80;;;;;;;-0.54;61.83;99012.38;4929314;28;20406;-87
2022/02/20 08:03:14;;;;;;;26.88;12.85;;;;;;;-0.69;62.61;99002.47;4929665;28;20050;-86
2022/02/20 08:05:40;;;;;;;34.75;15.10;;;;;;;-0.70;62.53;99001.63;4944451;28;20042;-85
2022/02/20 08:08:06;;;;;;;29.10;14.25;;;;;;;-0.60;62.94;98991.59;4928904;28;20519;-86
2022/02/20 08:10:32;;;;;;;39.17;15.55;;;;;;;-0.51;62.94;98992.09;4977513;28;20042;-85
2022/02/20 08:12:59;;;;;;;35.50;15.68;;;;;;;-0.34;62.24;98977.41;4944781;28;20043;-85
2022/02/20 08:15:27;;;;;;;33.78;14.02;;;;;;;-0.22;61.75;98970.81;4945967;28;20046;-86
2022/02/20 08:17:53;;;;;;;24.75;12.07;;;;;;;-0.46;61.94;98963.03;4954823;28;20051;-85
2022/02/20 08:20:19;;;;;;;28.42;13.77;;;;;;;-0.44;62.51;98961.19;4945591;28;20143;-86
2022/02/20 08:22:46;;;;;;;26.55;13.45;;;;;;;-0.35;61.98;98944.19;4939696;28;20205;-82
2022/02/20 08:25:14;;;;;;;25.48;12.38;;;;;;;-0.38;62.38;98934.66;4941288;28;20054;-85
2022/02/20 08:27:40;;;;;;;29.02;14.82;;;;;;;-0.36;62.64;98938.09;4982268;28;20074;-85
2022/02/20 08:30:09;;;;;;;35.78;16.58;;;;;;;-0.24;62.71;98915.69;4921564;28;20042;-85
2022/02/20 08:32:35;;;;;;;34.03;16.77;;;;;;;0.07;61.82;98909.97;4970100;28;20082;-85
2022/02/20 08:35:07;;;;;;;34.50;17.13;;;;;;;0.24;63.57;98917.97;4947175;28;20470;-85
2022/02/20 08:37:40;;;;;;;36.65;18.80;;;;;;;0.54;61.11;98904.34;4960814;28;20141;-87
2022/02/20 08:40:06;;;;;;;38.47;19.67;;;;;;;0.45;61.03;98915.25;4946804;28;20105;-84
2022/02/20 08:42:33;;;;;;;39.50;18.65;;;;;;;0.41;60.79;98914.56;4930212;28;20058;-86
2022/02/20 08:44:59;;;;;;;37.75;17.85;;;;;;;0.40;61.31;98917.25;4929960;28;20101;-86
2022/02/20 08:47:24;;;;;;;41.38;17.85;;;;;;;0.43;61.03;98901.34;4915704;28;20042;-83
2022/02/20 08:49:51;;;;;;;40.88;19.80;;;;;;;0.50;61.10;98902.78;4946848;28;20082;-85
2022/02/20 08:52:17;;;;;;;40.78;20.27;;;;;;;0.57;60.72;98901.56;4977418;28;20054;-85
2022/02/20 08:54:44;;;;;;;39.70;19.02;;;;;;;0.71;60.55;98896.53;4959575;28;20713;-84
2022/02/20 08:57:10;;;;;;;38.20;18.98;;;;;;;0.55;60.26;98890.25;4927362;28;20104;-84
2022/02/20 08:59:36;;;;;;;40.08;19.83;;;;;;;0.48;61.10;98915.13;4943269;28;20117;-85
2022/02/20 09:02:02;;;;;;;38.13;18.55;;;;;;;0.40;61.12;98902.34;4959425;28;20050;-86
2022/02/20 09:04:29;;;;;;;34.03;17.45;;;;;;;0.20;62.08;98895.38;4942853;28;20405;-84
2022/02/20 09:06:55;;;;;;;36.42;18.60;;;;;;;0.19;61.98;98898.91;4958762;28;20525;-86
2022/02/20 09:09:21;;;;;;;35.78;17.95;;;;;;;0.29;62.52;98893.25;4927147;28;20050;-84
2022/02/20 09:11:47;;;;;;;30.92;18.75;;;;;;;0.46;61.94;98894.19;4926623;28;20093;-84
2022/02/20 09:14:14;;;;;;;30.77;16.27;;;;;;;0.19;62.06;98858.66;4942346;28;20064;-86
2022/02/20 09:16:41;;;;;;;41.63;18.52;;;;;;;0.17;63.03;98847.34;4942997;28;20058;-85
2022/02/20 09:19:07;;;;;;;43.15;19.20;;;;;;;0.28;63.03;98849.47;4958587;28;20043;-86
2022/02/20 09:21:33;;;;;;;41.80;21.90;;;;;;;0.18;63.30;98838.53;4942405;28;20043;-84
2022/02/20 09:24:02;;;;;;;57.58;28.27;;;;;;;0.39;63.36;98845.44;4926988;28;20054;-87
2022/02/20 09:26:29;;;;;;;54.55;28.05;;;;;;;0.33;63.07;98842.22;4943148;28;20097;-86
2022/02/20 09:28:55;;;;;;;41.97;20.77;;;;;;;0.14;63.74;98835.19;4911099;28;20039;-88
2022/02/20 09:31:21;;;;;;;45.63;22.33;;;;;;;0.18;63.86;98823.59;4958216;28;20138;-86
2022/02/20 09:33:47;;;;;;;43.55;19.95;;;;;;;0.22;63.80;98822.53;4958139;28;20088;-86
2022/02/20 09:36:13;;;;;;;29.48;15.55;;;;;;;0.18;63.58;98817.50;4975167;28;20045;-85
2022/02/20 09:38:41;;;;;;;31.15;16.30;;;;;;;0.12;64.01;98830.94;4957821;28;20183;-87
2022/02/20 09:41:08;;;;;;;31.98;16.15;;;;;;;0.07;64.53;98817.97;4942431;28;20055;-86
2022/02/20 09:43:34;;;;;;;35.25;16.73;;;;;;;-0.09;64.30;98811.72;4957265;28;20154;-85
2022/02/20 09:46:01;;;;;;;39.17;15.60;;;;;;;-0.19;64.86;98784.16;4942184;28;20053;-84
2022/02/20 09:48:27;;;;;;;34.65;13.60;;;;;;;-0.31;65.70;98812.69;4957939;28;20450;-86
2022/02/20 09:50:53;;;;;;;37.35;17.48;;;;;;;-0.51;66.31;98817.97;4958233;28;20042;-84
2022/02/20 09:53:19;;;;;;;30.55;14.32;;;;;;;-0.52;66.72;98808.41;4957883;28;20081;-86
2022/02/20 09:55:46;;;;;;;34.85;16.38;;;;;;;-0.52;66.69;98795.28;4910027;28;20053;-85
2022/02/20 09:58:15;;;;;;;32.22;15.32;;;;;;;-0.61;66.78;98807.00;4925726;28;20499;-85
2022/02/20 10:01:07;;;;;;;29.42;13.40;;;;;;;-0.62;67.38;98826.31;4958205;28;20514;-86
2022/02/20 10:03:34;;;;;;;50.58;20.80;;;;;;;-0.68;68.11;98823.09;4943685;28;20045;-84
2022/02/20 10:06:02;;;;;;;45.35;21.15;;;;;;;-0.63;68.08;98808.84;4941586;28;20042;-84
2022/02/20 10:08:44;;;;;;;48.55;23.08;;;;;;;-0.57;67.91;98802.47;4974570;28;20054;-86
2022/02/20 10:11:20;;;;;;;52.35;22.55;;;;;;;-0.44;67.69;98787.91;4957382;28;20557;-86
2022/02/20 10:13:50;;;;;;;49.85;22.20;;;;;;;-0.25;67.26;98790.56;4941229;28;20462;-85
2022/02/20 10:16:30;;;;;;;50.60;23.92;;;;;;;-0.29;67.07;98789.00;4941387;28;20097;-84
2022/02/20 10:18:59;;;;;;;41.28;19.52;;;;;;;-0.37;67.20;98793.75;4926450;28;20049;-85
2022/02/20 10:22:04;;;;;;;40.80;21.08;;;;;;;-0.34;67.04;98781.34;4904058;29;20047;-87
2022/02/20 10:25:04;;;;;;;41.30;21.33;;;;;;;-0.31;67.43;98772.44;4946750;28;20054;-84
2022/02/20 10:27:53;;;;;;;44.13;21.38;;;;;;;0.00;66.89;98792.94;4961346;28;20066;-87
2022/02/20 10:30:30;;;;;;;48.17;23.35;;;;;;;-0.05;66.48;98797.53;4945125;28;20042;-84
2022/02/20 10:33:10;;;;;;;41.00;21.40;;;;;;;-0.14;67.07;98787.47;4942086;28;20069;-86
2022/02/20 10:35:49;;;;;;;59.55;27.40;;;;;;;-0.25;67.36;98787.94;4957676;28;20548;-86
2022/02/20 10:38:20;;;;;;;64.40;27.80;;;;;;;-0.26;67.97;98781.84;4957137;28;20053;-88
2022/02/20 10:40:50;;;;;;;71.90;28.92;;;;;;;-0.26;67.89;98776.59;4941352;28;20569;-85
2022/02/20 10:43:43;;;;;;;44.78;20.95;;;;;;;-0.35;68.56;98797.97;4974903;28;20067;-86
2022/02/20 10:46:16;;;;;;;48.05;22.83;;;;;;;-0.49;69.03;98810.88;4970558;28;20055;-85
2022/02/20 10:48:43;;;;;;;39.17;17.48;;;;;;;-0.52;68.85;98825.00;4941857;28;20054;-85
2022/02/20 10:51:10;;;;;;;43.10;19.92;;;;;;;-0.52;69.23;98825.00;4974851;28;20039;-84
2022/02/20 10:53:36;;;;;;;37.13;18.17;;;;;;;-0.53;69.24;98798.78;4925749;28;20101;-85
2022/02/20 10:56:02;;;;;;;43.75;19.02;;;;;;;-0.57;69.96;98795.44;4960242;28;20102;-86
2022/02/20 10:58:30;;;;;;;35.95;17.70;;;;;;;-0.53;69.47;98772.53;4929675;28;20047;-84
2022/02/20 11:01:01;;;;;;;34.63;17.27;;;;;;;-0.48;69.84;98783.72;4945802;28;20086;-85
2022/02/20 11:03:28;;;;;;;34.42;17.90;;;;;;;-0.29;69.40;98768.84;4945951;28;20440;-86
2022/02/20 11:05:55;;;;;;;42.35;18.98;;;;;;;-0.21;69.16;98784.25;4961162;28;20057;-85
2022/02/20 11:08:23;;;;;;;41.70;18.23;;;;;;;-0.23;68.69;98756.34;4961368;28;20050;-86
2022/02/20 11:10:49;;;;;;;33.45;17.48;;;;;;;-0.23;68.48;98764.22;4930386;28;20141;-84
2022/02/20 11:13:16;;;;;;;33.22;17.20;;;;;;;-0.26;68.23;98760.81;4960650;28;20083;-83
2022/02/20 11:15:43;;;;;;;29.05;14.82;;;;;;;-0.18;67.94;98746.50;4977959;28;20418;-85
2022/02/20 11:18:11;;;;;;;34.05;16.98;;;;;;;-0.22;67.85;98740.53;4928373;28;20057;-85
2022/02/20 11:20:42;;;;;;;36.95;16.60;;;;;;;-0.26;68.26;98744.22;4960637;28;20046;-85
2022/02/20 11:23:08;;;;;;;34.75;16.85;;;;;;;-0.33;68.27;98738.38;4945168;28;20094;-86
2022/02/20 11:25:35;;;;;;;37.80;15.77;;;;;;;-0.31;68.38;98744.41;4944322;28;20122;-84
2022/02/20 11:28:02;;;;;;;31.98;16.95;;;;;;;-0.41;68.20;98745.75;4945072;28;20042;-85
2022/02/20 11:30:29;;;;;;;29.45;15.75;;;;;;;-0.40;68.62;98729.06;4944616;28;20046;-85
2022/02/20 11:32:56;;;;;;;42.83;19.65;;;;;;;-0.40;68.53;98731.69;4944403;28;20482;-83
2022/02/20 11:35:22;;;;;;;24.35;14.10;;;;;;;-0.47;68.22;98717.16;4929100;28;20479;-87